Terminal Aerodrome Forecast
Issued by NWS Topeka, KS

Home | Current Version | Previous Version | Graphics & Text | Print | Product List | Glossary On
Versions: 1 2 3 4 5 6 7 8 9 10 11 12 13 14 15 16 17 18 19 20 21 22
000
FTUS43 KTOP 171100 AAA
TAFTOP
TAF AMD
KTOP 171149Z 1712/1812 08004KT P6SM MIFG SCT040 BKN250
     FM171500 11008KT P6SM SCT035
     FM172100 14010KT P6SM VCTS SCT040CB BKN200
     FM172200 11008KT 5SM -RA VCTS BKN035CB=

USA.gov is the U.S. government's official web portal to all federal, state and local government web resources and services.